createdAt,value
2018-04-08T00:02:34.415Z,11.72
2018-04-08T00:17:34.270Z,11.67
2018-04-08T00:32:37.255Z,11.57
2018-04-08T00:47:34.638Z,11.35
2018-04-08T01:02:34.730Z,11.15
2018-04-08T01:17:34.076Z,11.04
2018-04-08T01:32:34.478Z,10.94
2018-04-08T01:47:34.118Z,10.85
2018-04-08T02:02:34.858Z,10.77
2018-04-08T02:17:34.781Z,10.62
2018-04-08T02:32:34.684Z,10.56
2018-04-08T02:47:34.814Z,10.49
2018-04-08T03:02:35.155Z,10.36
2018-04-08T03:17:35.502Z,10.28
2018-04-08T03:32:35.118Z,10.09
2018-04-08T03:47:34.682Z,9.99
2018-04-08T04:02:34.357Z,10.08
2018-04-08T04:17:34.974Z,10.94
2018-04-08T04:32:35.556Z,11.23
2018-04-08T04:47:34.026Z,14.52
2018-04-08T05:02:34.825Z,17.62
2018-04-08T05:17:34.950Z,20.17
2018-04-08T05:32:34.386Z,22.14
2018-04-08T05:47:36.802Z,24.05
2018-04-08T06:02:34.874Z,25.15
2018-04-08T06:17:34.626Z,25.94
2018-04-08T06:32:34.627Z,25.42
2018-04-08T06:47:34.997Z,24.84
2018-04-08T07:02:35.017Z,23.90
2018-04-08T07:17:34.686Z,22.90
2018-04-08T07:32:34.845Z,21.94
2018-04-08T07:47:35.232Z,21.00
2018-04-08T08:02:35.235Z,21.55
2018-04-08T08:17:34.896Z,22.32
2018-04-08T08:32:35.064Z,23.89
2018-04-08T08:47:34.789Z,23.53
2018-04-08T09:02:36.408Z,23.56
2018-04-08T09:17:34.395Z,23.87
2018-04-08T09:32:34.272Z,25.44
2018-04-08T09:47:34.450Z,24.42
2018-04-08T10:02:37.336Z,23.92
2018-04-08T10:17:34.528Z,23.78
2018-04-08T10:32:34.513Z,23.82
2018-04-08T10:47:36.434Z,23.09
2018-04-08T11:02:35.289Z,23.44
2018-04-08T11:17:35.018Z,23.58
2018-04-08T11:32:34.782Z,23.56
2018-04-08T11:47:35.118Z,23.17
2018-04-08T12:02:34.126Z,22.95
2018-04-08T12:17:33.821Z,22.72
2018-04-08T12:32:35.642Z,22.27
2018-04-08T12:47:34.427Z,22.30
2018-04-08T13:02:36.402Z,22.13
2018-04-08T13:17:34.098Z,21.85
2018-04-08T13:32:34.221Z,21.52
2018-04-08T13:47:34.671Z,21.81
2018-04-08T14:02:34.627Z,21.45
2018-04-08T14:17:34.744Z,21.16
2018-04-08T14:32:34.294Z,21.25
2018-04-08T14:47:34.747Z,21.19
2018-04-08T15:02:34.903Z,20.81
2018-04-08T15:17:34.746Z,20.80
2018-04-08T15:32:35.271Z,20.37
2018-04-08T15:47:33.958Z,19.66
2018-04-08T16:02:35.179Z,19.17
2018-04-08T16:17:35.342Z,18.77
2018-04-08T16:32:36.922Z,18.44
2018-04-08T16:47:35.831Z,18.09
2018-04-08T17:02:36.429Z,17.75
2018-04-08T17:17:34.319Z,17.43
2018-04-08T17:32:33.175Z,17.13
2018-04-08T17:47:37.822Z,16.87
2018-04-08T18:02:34.714Z,16.63
2018-04-08T18:17:34.530Z,16.33
2018-04-08T18:32:34.546Z,16.10
2018-04-08T18:47:34.795Z,15.87
2018-04-08T19:02:34.949Z,15.71
2018-04-08T19:17:40.256Z,15.63
2018-04-08T19:32:34.639Z,15.60
2018-04-08T19:47:34.066Z,15.55
2018-04-08T20:02:36.260Z,15.46
2018-04-08T20:17:33.982Z,15.28
2018-04-08T20:32:34.159Z,15.11
2018-04-08T20:47:34.877Z,14.96
2018-04-08T21:02:36.790Z,14.88
2018-04-08T21:17:34.662Z,15.03
2018-04-08T21:32:34.141Z,14.88
2018-04-08T21:47:34.526Z,14.63
2018-04-08T22:02:36.657Z,14.26
2018-04-08T22:17:34.439Z,13.99
2018-04-08T22:32:34.922Z,13.67
2018-04-08T22:47:34.778Z,13.25
2018-04-08T23:02:36.923Z,13.02
2018-04-08T23:17:36.666Z,12.86
2018-04-08T23:32:34.671Z,12.83
2018-04-08T23:47:34.636Z,12.86
